sensor_id;sensor_type;location;lat;lon;timestamp;temperature;humidity
52769;DHT22;40471;44.534;18.644;2023-06-26T00:00:27;20.90;99.90
52769;DHT22;40471;44.534;18.644;2023-06-26T00:02:52;20.90;99.90
52769;DHT22;40471;44.534;18.644;2023-06-26T00:05:18;20.90;99.90
52769;DHT22;40471;44.534;18.644;2023-06-26T00:07:44;21.00;99.90
52769;DHT22;40471;44.534;18.644;2023-06-26T00:10:10;21.00;99.90
52769;DHT22;40471;44.534;18.644;2023-06-26T00:12:35;21.10;99.90
52769;DHT22;40471;44.534;18.644;2023-06-26T00:15:01;21.10;99.90
52769;DHT22;40471;44.534;18.644;2023-06-26T00:17:27;21.00;99.90
52769;DHT22;40471;44.534;18.644;2023-06-26T00:19:52;21.00;99.90
52769;DHT22;40471;44.534;18.644;2023-06-26T00:22:18;21.00;99.90
52769;DHT22;40471;44.534;18.644;2023-06-26T00:24:44;21.00;99.90
52769;DHT22;40471;44.534;18.644;2023-06-26T00:27:10;21.00;99.90
52769;DHT22;40471;44.534;18.644;2023-06-26T00:29:36;21.00;99.90
52769;DHT22;40471;44.534;18.644;2023-06-26T00:32:01;21.10;99.90
52769;DHT22;40471;44.534;18.644;2023-06-26T00:34:27;21.00;99.90
52769;DHT22;40471;44.534;18.644;2023-06-26T00:36:52;21.00;99.90
52769;DHT22;40471;44.534;18.644;2023-06-26T00:39:18;21.00;99.90
52769;DHT22;40471;44.534;18.644;2023-06-26T00:41:44;21.00;99.90
52769;DHT22;40471;44.534;18.644;2023-06-26T00:44:10;21.00;99.90
52769;DHT22;40471;44.534;18.644;2023-06-26T00:46:35;20.90;99.90
52769;DHT22;40471;44.534;18.644;2023-06-26T00:49:02;20.90;99.90
52769;DHT22;40471;44.534;18.644;2023-06-26T00:51:29;20.90;99.90
52769;DHT22;40471;44.534;18.644;2023-06-26T00:53:55;21.00;99.90
52769;DHT22;40471;44.534;18.644;2023-06-26T00:56:21;20.90;99.90
52769;DHT22;40471;44.534;18.644;2023-06-26T00:58:47;20.90;99.90
52769;DHT22;40471;44.534;18.644;2023-06-26T01:01:13;20.80;99.90
52769;DHT22;40471;44.534;18.644;2023-06-26T01:03:45;20.80;99.90
52769;DHT22;40471;44.534;18.644;2023-06-26T01:06:11;20.80;99.90
52769;DHT22;40471;44.534;18.644;2023-06-26T01:08:41;20.90;99.90
52769;DHT22;40471;44.534;18.644;2023-06-26T01:11:07;20.90;99.90
52769;DHT22;40471;44.534;18.644;2023-06-26T01:13:33;20.90;99.90
52769;DHT22;40471;44.534;18.644;2023-06-26T01:15:59;20.50;99.90
52769;DHT22;40471;44.534;18.644;2023-06-26T01:18:25;20.30;99.90
52769;DHT22;40471;44.534;18.644;2023-06-26T01:20:51;20.40;99.90
52769;DHT22;40471;44.534;18.644;2023-06-26T01:28:20;20.30;99.90
52769;DHT22;40471;44.534;18.644;2023-06-26T01:30:47;20.40;99.90
52769;DHT22;40471;44.534;18.644;2023-06-26T01:33:13;20.50;99.90
52769;DHT22;40471;44.534;18.644;2023-06-26T01:35:39;20.50;99.90
52769;DHT22;40471;44.534;18.644;2023-06-26T01:38:19;20.50;99.90
52769;DHT22;40471;44.534;18.644;2023-06-26T01:40:46;20.50;99.90
52769;DHT22;40471;44.534;18.644;2023-06-26T01:45:59;20.40;99.90
52769;DHT22;40471;44.534;18.644;2023-06-26T01:48:30;20.30;99.90
52769;DHT22;40471;44.534;18.644;2023-06-26T01:50:56;20.30;99.90
52769;DHT22;40471;44.534;18.644;2023-06-26T01:53:24;20.10;99.90
52769;DHT22;40471;44.534;18.644;2023-06-26T01:55:52;20.10;99.90
52769;DHT22;40471;44.534;18.644;2023-06-26T01:58:19;19.90;99.90
52769;DHT22;40471;44.534;18.644;2023-06-26T02:00:47;20.00;99.90
52769;DHT22;40471;44.534;18.644;2023-06-26T02:03:12;19.90;99.90
52769;DHT22;40471;44.534;18.644;2023-06-26T02:05:38;20.00;99.90
52769;DHT22;40471;44.534;18.644;2023-06-26T02:08:04;20.10;99.90
52769;DHT22;40471;44.534;18.644;2023-06-26T02:10:30;20.10;99.90
52769;DHT22;40471;44.534;18.644;2023-06-26T02:12:56;20.10;99.90
52769;DHT22;40471;44.534;18.644;2023-06-26T02:15:21;19.90;99.90
52769;DHT22;40471;44.534;18.644;2023-06-26T02:17:47;19.90;99.90
52769;DHT22;40471;44.534;18.644;2023-06-26T02:20:14;20.00;99.90
52769;DHT22;40471;44.534;18.644;2023-06-26T02:22:41;20.00;99.90
52769;DHT22;40471;44.534;18.644;2023-06-26T02:25:06;20.00;99.90
52769;DHT22;40471;44.534;18.644;2023-06-26T02:27:32;19.90;99.90
52769;DHT22;40471;44.534;18.644;2023-06-26T02:29:58;19.90;99.90
52769;DHT22;40471;44.534;18.644;2023-06-26T02:32:23;19.80;99.90
52769;DHT22;40471;44.534;18.644;2023-06-26T02:34:49;19.80;99.90
52769;DHT22;40471;44.534;18.644;2023-06-26T02:37:17;19.60;99.90
52769;DHT22;40471;44.534;18.644;2023-06-26T02:39:43;19.60;99.90
52769;DHT22;40471;44.534;18.644;2023-06-26T02:42:08;19.60;99.90
52769;DHT22;40471;44.534;18.644;2023-06-26T02:44:34;19.60;99.90
52769;DHT22;40471;44.534;18.644;2023-06-26T02:47:00;19.60;99.90
52769;DHT22;40471;44.534;18.644;2023-06-26T02:49:25;19.70;99.90
52769;DHT22;40471;44.534;18.644;2023-06-26T02:51:51;19.60;99.90
52769;DHT22;40471;44.534;18.644;2023-06-26T02:54:17;19.60;99.90
52769;DHT22;40471;44.534;18.644;2023-06-26T02:56:42;19.50;99.90
52769;DHT22;40471;44.534;18.644;2023-06-26T02:59:08;19.50;99.90
52769;DHT22;40471;44.534;18.644;2023-06-26T03:01:34;19.50;99.90
52769;DHT22;40471;44.534;18.644;2023-06-26T03:03:59;19.40;99.90
52769;DHT22;40471;44.534;18.644;2023-06-26T03:06:26;19.40;99.90
52769;DHT22;40471;44.534;18.644;2023-06-26T03:08:52;19.40;99.90
52769;DHT22;40471;44.534;18.644;2023-06-26T03:11:18;19.30;99.90
52769;DHT22;40471;44.534;18.644;2023-06-26T03:13:44;19.40;99.90
52769;DHT22;40471;44.534;18.644;2023-06-26T03:16:09;19.30;99.90
52769;DHT22;40471;44.534;18.644;2023-06-26T03:18:35;19.30;99.90
52769;DHT22;40471;44.534;18.644;2023-06-26T03:21:01;19.30;99.90
52769;DHT22;40471;44.534;18.644;2023-06-26T03:23:26;19.30;99.90
52769;DHT22;40471;44.534;18.644;2023-06-26T03:25:52;19.30;99.90
52769;DHT22;40471;44.534;18.644;2023-06-26T03:28:18;19.30;99.90
52769;DHT22;40471;44.534;18.644;2023-06-26T03:30:44;19.30;99.90
52769;DHT22;40471;44.534;18.644;2023-06-26T03:33:10;19.30;99.90
52769;DHT22;40471;44.534;18.644;2023-06-26T03:35:35;19.40;99.90
52769;DHT22;40471;44.534;18.644;2023-06-26T03:38:01;19.40;99.90
52769;DHT22;40471;44.534;18.644;2023-06-26T03:40:27;19.40;99.90
52769;DHT22;40471;44.534;18.644;2023-06-26T03:42:52;19.40;99.90
52769;DHT22;40471;44.534;18.644;2023-06-26T03:45:18;19.40;99.90
52769;DHT22;40471;44.534;18.644;2023-06-26T03:47:44;19.30;99.90
52769;DHT22;40471;44.534;18.644;2023-06-26T03:50:12;19.40;99.90
52769;DHT22;40471;44.534;18.644;2023-06-26T03:52:38;19.40;99.90
52769;DHT22;40471;44.534;18.644;2023-06-26T03:55:04;19.50;99.90
52769;DHT22;40471;44.534;18.644;2023-06-26T03:57:29;19.00;99.90
52769;DHT22;40471;44.534;18.644;2023-06-26T03:59:55;19.50;99.90
52769;DHT22;40471;44.534;18.644;2023-06-26T04:02:21;19.50;99.90
52769;DHT22;40471;44.534;18.644;2023-06-26T04:04:46;19.80;99.90
52769;DHT22;40471;44.534;18.644;2023-06-26T04:07:12;19.60;99.90
52769;DHT22;40471;44.534;18.644;2023-06-26T04:09:38;19.80;99.90
52769;DHT22;40471;44.534;18.644;2023-06-26T04:12:04;19.80;99.90
52769;DHT22;40471;44.534;18.644;2023-06-26T04:14:29;20.00;99.90
52769;DHT22;40471;44.534;18.644;2023-06-26T04:16:55;20.10;99.90
52769;DHT22;40471;44.534;18.644;2023-06-26T04:19:23;20.20;99.90
52769;DHT22;40471;44.534;18.644;2023-06-26T04:21:48;20.40;99.90
52769;DHT22;40471;44.534;18.644;2023-06-26T04:24:14;20.60;99.90
52769;DHT22;40471;44.534;18.644;2023-06-26T04:26:40;20.90;99.90
52769;DHT22;40471;44.534;18.644;2023-06-26T04:29:06;21.00;99.90
52769;DHT22;40471;44.534;18.644;2023-06-26T04:31:32;21.30;99.90
52769;DHT22;40471;44.534;18.644;2023-06-26T04:33:58;21.10;99.90
52769;DHT22;40471;44.534;18.644;2023-06-26T04:36:25;21.10;99.90
52769;DHT22;40471;44.534;18.644;2023-06-26T04:38:56;21.30;99.90
52769;DHT22;40471;44.534;18.644;2023-06-26T04:41:22;21.50;99.90
52769;DHT22;40471;44.534;18.644;2023-06-26T04:43:48;21.60;99.90
52769;DHT22;40471;44.534;18.644;2023-06-26T04:46:14;21.80;99.90
52769;DHT22;40471;44.534;18.644;2023-06-26T04:48:39;21.90;99.90
52769;DHT22;40471;44.534;18.644;2023-06-26T04:51:05;22.00;99.90
52769;DHT22;40471;44.534;18.644;2023-06-26T04:53:31;22.10;99.90
52769;DHT22;40471;44.534;18.644;2023-06-26T04:55:56;22.20;99.90
52769;DHT22;40471;44.534;18.644;2023-06-26T04:58:22;22.20;99.90
52769;DHT22;40471;44.534;18.644;2023-06-26T05:00:48;22.20;99.90
52769;DHT22;40471;44.534;18.644;2023-06-26T05:03:14;22.10;99.90
52769;DHT22;40471;44.534;18.644;2023-06-26T05:05:40;22.10;99.90
52769;DHT22;40471;44.534;18.644;2023-06-26T05:08:16;22.30;99.90
52769;DHT22;40471;44.534;18.644;2023-06-26T05:10:41;22.30;99.90
52769;DHT22;40471;44.534;18.644;2023-06-26T05:13:07;22.30;99.90
52769;DHT22;40471;44.534;18.644;2023-06-26T05:15:33;22.30;99.90
52769;DHT22;40471;44.534;18.644;2023-06-26T05:17:58;22.50;99.90
52769;DHT22;40471;44.534;18.644;2023-06-26T05:20:24;22.60;99.90
52769;DHT22;40471;44.534;18.644;2023-06-26T05:22:50;22.90;99.90
52769;DHT22;40471;44.534;18.644;2023-06-26T05:25:16;23.10;99.90
52769;DHT22;40471;44.534;18.644;2023-06-26T05:28:01;23.50;99.90
52769;DHT22;40471;44.534;18.644;2023-06-26T05:30:32;23.60;99.90
52769;DHT22;40471;44.534;18.644;2023-06-26T05:33:23;23.90;99.90
52769;DHT22;40471;44.534;18.644;2023-06-26T05:39:29;24.40;99.90
52769;DHT22;40471;44.534;18.644;2023-06-26T05:41:55;24.50;99.90
52769;DHT22;40471;44.534;18.644;2023-06-26T05:44:21;25.10;99.90
52769;DHT22;40471;44.534;18.644;2023-06-26T05:46:47;25.30;99.90
52769;DHT22;40471;44.534;18.644;2023-06-26T05:49:13;25.50;99.90
52769;DHT22;40471;44.534;18.644;2023-06-26T05:51:38;25.80;99.90
52769;DHT22;40471;44.534;18.644;2023-06-26T05:54:04;26.70;99.90
52769;DHT22;40471;44.534;18.644;2023-06-26T05:56:30;27.20;99.90
52769;DHT22;40471;44.534;18.644;2023-06-26T05:58:56;29.70;99.90
52769;DHT22;40471;44.534;18.644;2023-06-26T06:01:22;29.60;99.90
52769;DHT22;40471;44.534;18.644;2023-06-26T06:03:49;29.00;99.90
52769;DHT22;40471;44.534;18.644;2023-06-26T06:06:15;28.30;99.90
52769;DHT22;40471;44.534;18.644;2023-06-26T06:08:41;28.00;99.90
52769;DHT22;40471;44.534;18.644;2023-06-26T06:11:07;27.80;99.90
52769;DHT22;40471;44.534;18.644;2023-06-26T06:13:32;28.10;99.90
52769;DHT22;40471;44.534;18.644;2023-06-26T06:15:58;27.90;99.90
52769;DHT22;40471;44.534;18.644;2023-06-26T06:18:24;27.30;99.90
52769;DHT22;40471;44.534;18.644;2023-06-26T06:20:49;27.10;99.90
52769;DHT22;40471;44.534;18.644;2023-06-26T06:23:15;27.00;99.90
52769;DHT22;40471;44.534;18.644;2023-06-26T06:25:41;28.80;99.90
52769;DHT22;40471;44.534;18.644;2023-06-26T06:28:06;31.10;99.90
52769;DHT22;40471;44.534;18.644;2023-06-26T06:30:32;32.30;94.60
52769;DHT22;40471;44.534;18.644;2023-06-26T06:32:58;34.20;90.70
52769;DHT22;40471;44.534;18.644;2023-06-26T06:35:23;35.70;87.10
52769;DHT22;40471;44.534;18.644;2023-06-26T06:37:49;36.00;81.50
52769;DHT22;40471;44.534;18.644;2023-06-26T06:40:15;36.40;80.40
52769;DHT22;40471;44.534;18.644;2023-06-26T06:42:41;35.90;77.90
52769;DHT22;40471;44.534;18.644;2023-06-26T06:45:07;35.00;78.70
52769;DHT22;40471;44.534;18.644;2023-06-26T06:47:33;35.50;77.80
52769;DHT22;40471;44.534;18.644;2023-06-26T06:49:59;35.00;78.60
52769;DHT22;40471;44.534;18.644;2023-06-26T06:52:29;36.00;76.40
52769;DHT22;40471;44.534;18.644;2023-06-26T06:54:55;37.30;76.00
52769;DHT22;40471;44.534;18.644;2023-06-26T06:57:21;38.10;74.20
52769;DHT22;40471;44.534;18.644;2023-06-26T06:59:47;37.00;72.20
52769;DHT22;40471;44.534;18.644;2023-06-26T07:02:14;37.40;72.80
52769;DHT22;40471;44.534;18.644;2023-06-26T07:04:40;38.20;71.80
52769;DHT22;40471;44.534;18.644;2023-06-26T07:07:06;39.00;69.90
52769;DHT22;40471;44.534;18.644;2023-06-26T07:09:32;39.60;68.40
52769;DHT22;40471;44.534;18.644;2023-06-26T07:11:58;40.40;66.60
52769;DHT22;40471;44.534;18.644;2023-06-26T07:14:24;40.80;65.90
52769;DHT22;40471;44.534;18.644;2023-06-26T07:16:49;41.20;64.60
52769;DHT22;40471;44.534;18.644;2023-06-26T07:19:15;41.50;63.40
52769;DHT22;40471;44.534;18.644;2023-06-26T07:21:40;41.30;63.60
52769;DHT22;40471;44.534;18.644;2023-06-26T07:24:07;41.40;62.70
52769;DHT22;40471;44.534;18.644;2023-06-26T07:26:33;41.50;61.90
52769;DHT22;40471;44.534;18.644;2023-06-26T07:28:59;41.70;61.20
52769;DHT22;40471;44.534;18.644;2023-06-26T07:31:24;41.70;62.00
52769;DHT22;40471;44.534;18.644;2023-06-26T07:33:50;41.50;62.00
52769;DHT22;40471;44.534;18.644;2023-06-26T07:36:15;41.70;61.10
52769;DHT22;40471;44.534;18.644;2023-06-26T07:38:41;41.60;61.50
52769;DHT22;40471;44.534;18.644;2023-06-26T07:41:07;41.70;60.50
52769;DHT22;40471;44.534;18.644;2023-06-26T07:43:33;42.30;61.60
52769;DHT22;40471;44.534;18.644;2023-06-26T07:45:58;42.60;60.20
52769;DHT22;40471;44.534;18.644;2023-06-26T07:48:24;42.00;59.90
52769;DHT22;40471;44.534;18.644;2023-06-26T07:50:50;40.60;61.50
52769;DHT22;40471;44.534;18.644;2023-06-26T07:53:16;40.40;63.00
52769;DHT22;40471;44.534;18.644;2023-06-26T07:55:42;39.70;62.70
52769;DHT22;40471;44.534;18.644;2023-06-26T07:58:08;39.60;63.00
52769;DHT22;40471;44.534;18.644;2023-06-26T08:00:33;39.50;63.70
52769;DHT22;40471;44.534;18.644;2023-06-26T08:02:59;40.10;62.80
52769;DHT22;40471;44.534;18.644;2023-06-26T08:05:25;39.40;63.30
52769;DHT22;40471;44.534;18.644;2023-06-26T08:07:50;38.00;64.30
52769;DHT22;40471;44.534;18.644;2023-06-26T08:10:16;38.00;65.10
52769;DHT22;40471;44.534;18.644;2023-06-26T08:12:42;38.20;65.60
52769;DHT22;40471;44.534;18.644;2023-06-26T08:15:11;37.40;65.60
52769;DHT22;40471;44.534;18.644;2023-06-26T08:17:36;36.40;66.60
52769;DHT22;40471;44.534;18.644;2023-06-26T08:20:02;35.60;68.20
52769;DHT22;40471;44.534;18.644;2023-06-26T08:22:28;36.10;69.10
52769;DHT22;40471;44.534;18.644;2023-06-26T08:24:54;36.50;68.30
52769;DHT22;40471;44.534;18.644;2023-06-26T08:27:20;37.30;68.40
52769;DHT22;40471;44.534;18.644;2023-06-26T08:29:45;38.00;66.80
52769;DHT22;40471;44.534;18.644;2023-06-26T08:32:11;37.80;67.40
52769;DHT22;40471;44.534;18.644;2023-06-26T08:34:37;37.60;67.10
52769;DHT22;40471;44.534;18.644;2023-06-26T08:37:02;36.60;68.60
52769;DHT22;40471;44.534;18.644;2023-06-26T08:39:28;36.10;68.90
52769;DHT22;40471;44.534;18.644;2023-06-26T08:41:54;37.30;67.90
52769;DHT22;40471;44.534;18.644;2023-06-26T08:44:19;38.30;66.10
52769;DHT22;40471;44.534;18.644;2023-06-26T08:46:49;38.90;67.50
52769;DHT22;40471;44.534;18.644;2023-06-26T08:49:18;39.20;66.00
52769;DHT22;40471;44.534;18.644;2023-06-26T08:51:45;39.20;63.70
52769;DHT22;40471;44.534;18.644;2023-06-26T08:54:15;38.50;64.60
52769;DHT22;40471;44.534;18.644;2023-06-26T08:56:42;37.70;63.80
52769;DHT22;40471;44.534;18.644;2023-06-26T08:59:08;36.80;64.70
52769;DHT22;40471;44.534;18.644;2023-06-26T09:01:36;35.90;66.40
52769;DHT22;40471;44.534;18.644;2023-06-26T09:04:02;35.20;67.90
52769;DHT22;40471;44.534;18.644;2023-06-26T09:06:28;34.50;68.40
52769;DHT22;40471;44.534;18.644;2023-06-26T09:08:53;33.80;69.50
52769;DHT22;40471;44.534;18.644;2023-06-26T09:11:19;33.50;70.70
52769;DHT22;40471;44.534;18.644;2023-06-26T09:13:45;32.90;72.60
52769;DHT22;40471;44.534;18.644;2023-06-26T09:16:12;32.20;74.10
52769;DHT22;40471;44.534;18.644;2023-06-26T09:18:40;31.90;75.30
52769;DHT22;40471;44.534;18.644;2023-06-26T09:21:06;31.70;76.30
52769;DHT22;40471;44.534;18.644;2023-06-26T09:23:32;31.60;77.00
52769;DHT22;40471;44.534;18.644;2023-06-26T09:25:59;31.90;76.10
52769;DHT22;40471;44.534;18.644;2023-06-26T09:28:24;33.10;77.10
52769;DHT22;40471;44.534;18.644;2023-06-26T09:30:50;34.50;73.60
52769;DHT22;40471;44.534;18.644;2023-06-26T09:33:17;35.40;72.80
52769;DHT22;40471;44.534;18.644;2023-06-26T09:35:43;36.10;71.60
52769;DHT22;40471;44.534;18.644;2023-06-26T09:38:09;35.90;70.50
52769;DHT22;40471;44.534;18.644;2023-06-26T09:40:35;35.30;70.20
52769;DHT22;40471;44.534;18.644;2023-06-26T09:43:07;34.70;70.50
52769;DHT22;40471;44.534;18.644;2023-06-26T09:45:35;34.40;69.90
52769;DHT22;40471;44.534;18.644;2023-06-26T09:48:04;34.80;69.30
52769;DHT22;40471;44.534;18.644;2023-06-26T09:50:32;34.70;69.90
52769;DHT22;40471;44.534;18.644;2023-06-26T09:53:08;34.40;69.90
52769;DHT22;40471;44.534;18.644;2023-06-26T09:55:39;34.00;71.00
52769;DHT22;40471;44.534;18.644;2023-06-26T09:58:05;33.50;71.70
52769;DHT22;40471;44.534;18.644;2023-06-26T10:00:31;33.00;72.30
52769;DHT22;40471;44.534;18.644;2023-06-26T10:02:58;32.60;74.70
52769;DHT22;40471;44.534;18.644;2023-06-26T10:05:23;32.10;76.60
52769;DHT22;40471;44.534;18.644;2023-06-26T10:07:49;31.80;77.20
52769;DHT22;40471;44.534;18.644;2023-06-26T10:10:15;31.50;78.40
52769;DHT22;40471;44.534;18.644;2023-06-26T10:12:41;31.10;79.20
52769;DHT22;40471;44.534;18.644;2023-06-26T10:15:09;31.00;80.60
52769;DHT22;40471;44.534;18.644;2023-06-26T10:17:37;30.80;81.60
52769;DHT22;40471;44.534;18.644;2023-06-26T10:20:04;30.70;82.30
52769;DHT22;40471;44.534;18.644;2023-06-26T10:22:33;30.70;83.70
52769;DHT22;40471;44.534;18.644;2023-06-26T10:25:00;30.70;83.70
52769;DHT22;40471;44.534;18.644;2023-06-26T10:27:28;30.80;83.20
52769;DHT22;40471;44.534;18.644;2023-06-26T10:30:01;31.00;85.60
52769;DHT22;40471;44.534;18.644;2023-06-26T10:32:27;31.20;84.30
52769;DHT22;40471;44.534;18.644;2023-06-26T10:34:53;31.00;86.00
52769;DHT22;40471;44.534;18.644;2023-06-26T10:37:20;31.10;84.10
52769;DHT22;40471;44.534;18.644;2023-06-26T10:39:47;31.00;82.10
52769;DHT22;40471;44.534;18.644;2023-06-26T10:42:14;30.80;84.10
52769;DHT22;40471;44.534;18.644;2023-06-26T10:44:43;30.80;81.20
52769;DHT22;40471;44.534;18.644;2023-06-26T10:56:18;32.90;81.30
52769;DHT22;40471;44.534;18.644;2023-06-26T10:58:44;34.00;76.20
52769;DHT22;40471;44.534;18.644;2023-06-26T11:03:38;33.90;75.50
52769;DHT22;40471;44.534;18.644;2023-06-26T11:06:13;33.50;75.40
52769;DHT22;40471;44.534;18.644;2023-06-26T11:08:46;33.20;76.10
52769;DHT22;40471;44.534;18.644;2023-06-26T11:11:12;32.90;75.30
52769;DHT22;40471;44.534;18.644;2023-06-26T11:13:39;32.80;74.60
52769;DHT22;40471;44.534;18.644;2023-06-26T11:16:05;32.60;75.20
52769;DHT22;40471;44.534;18.644;2023-06-26T11:18:31;32.60;75.00
52769;DHT22;40471;44.534;18.644;2023-06-26T11:21:06;32.50;76.90
52769;DHT22;40471;44.534;18.644;2023-06-26T11:23:32;32.50;76.00
52769;DHT22;40471;44.534;18.644;2023-06-26T11:26:12;32.40;76.10
52769;DHT22;40471;44.534;18.644;2023-06-26T11:28:37;32.80;75.50
52769;DHT22;40471;44.534;18.644;2023-06-26T11:31:03;33.50;76.80
52769;DHT22;40471;44.534;18.644;2023-06-26T11:33:29;34.10;71.90
52769;DHT22;40471;44.534;18.644;2023-06-26T11:35:54;34.60;72.70
52769;DHT22;40471;44.534;18.644;2023-06-26T11:38:21;35.00;71.00
52769;DHT22;40471;44.534;18.644;2023-06-26T11:40:46;35.50;69.20
52769;DHT22;40471;44.534;18.644;2023-06-26T11:43:13;35.90;68.80
52769;DHT22;40471;44.534;18.644;2023-06-26T11:45:40;35.90;66.40
52769;DHT22;40471;44.534;18.644;2023-06-26T11:48:05;35.90;66.70
52769;DHT22;40471;44.534;18.644;2023-06-26T11:50:31;35.50;65.60
52769;DHT22;40471;44.534;18.644;2023-06-26T11:52:57;35.00;66.20
52769;DHT22;40471;44.534;18.644;2023-06-26T11:55:23;35.10;67.10
52769;DHT22;40471;44.534;18.644;2023-06-26T11:57:49;35.40;67.60
52769;DHT22;40471;44.534;18.644;2023-06-26T12:00:16;35.50;65.60
52769;DHT22;40471;44.534;18.644;2023-06-26T12:02:42;35.20;66.10
52769;DHT22;40471;44.534;18.644;2023-06-26T12:05:08;35.20;67.10
52769;DHT22;40471;44.534;18.644;2023-06-26T12:07:34;34.70;66.70
52769;DHT22;40471;44.534;18.644;2023-06-26T12:10:02;34.20;68.40
52769;DHT22;40471;44.534;18.644;2023-06-26T12:12:29;33.80;67.90
52769;DHT22;40471;44.534;18.644;2023-06-26T12:14:56;33.40;70.30
52769;DHT22;40471;44.534;18.644;2023-06-26T12:17:22;33.10;68.90
52769;DHT22;40471;44.534;18.644;2023-06-26T12:32:02;32.00;73.00
52769;DHT22;40471;44.534;18.644;2023-06-26T12:34:34;32.10;74.40
52769;DHT22;40471;44.534;18.644;2023-06-26T12:37:01;32.40;72.90
52769;DHT22;40471;44.534;18.644;2023-06-26T12:39:27;32.90;72.40
52769;DHT22;40471;44.534;18.644;2023-06-26T12:41:54;33.00;73.20
52769;DHT22;40471;44.534;18.644;2023-06-26T12:44:20;33.20;71.50
52769;DHT22;40471;44.534;18.644;2023-06-26T12:46:49;33.40;69.80
52769;DHT22;40471;44.534;18.644;2023-06-26T12:49:15;33.60;71.40
52769;DHT22;40471;44.534;18.644;2023-06-26T12:51:41;33.70;69.00
52769;DHT22;40471;44.534;18.644;2023-06-26T12:54:08;33.30;69.60
52769;DHT22;40471;44.534;18.644;2023-06-26T12:56:33;33.30;70.50
52769;DHT22;40471;44.534;18.644;2023-06-26T12:58:59;33.40;70.20
52769;DHT22;40471;44.534;18.644;2023-06-26T13:01:26;33.40;69.90
52769;DHT22;40471;44.534;18.644;2023-06-26T13:03:53;33.40;70.20
52769;DHT22;40471;44.534;18.644;2023-06-26T13:06:19;33.40;69.30
52769;DHT22;40471;44.534;18.644;2023-06-26T13:08:45;33.50;69.30
52769;DHT22;40471;44.534;18.644;2023-06-26T13:11:10;33.70;69.10
52769;DHT22;40471;44.534;18.644;2023-06-26T13:13:36;33.90;68.30
52769;DHT22;40471;44.534;18.644;2023-06-26T13:16:02;34.00;67.70
52769;DHT22;40471;44.534;18.644;2023-06-26T13:18:27;33.90;67.40
52769;DHT22;40471;44.534;18.644;2023-06-26T13:20:53;33.90;66.40
52769;DHT22;40471;44.534;18.644;2023-06-26T13:23:19;34.10;67.60
52769;DHT22;40471;44.534;18.644;2023-06-26T13:25:45;34.00;68.40
52769;DHT22;40471;44.534;18.644;2023-06-26T13:28:11;33.80;68.10
52769;DHT22;40471;44.534;18.644;2023-06-26T13:30:36;33.60;70.40
52769;DHT22;40471;44.534;18.644;2023-06-26T13:33:02;33.60;70.30
52769;DHT22;40471;44.534;18.644;2023-06-26T13:35:28;33.50;69.90
52769;DHT22;40471;44.534;18.644;2023-06-26T13:37:54;33.60;69.50
52769;DHT22;40471;44.534;18.644;2023-06-26T13:40:19;33.50;68.70
52769;DHT22;40471;44.534;18.644;2023-06-26T13:42:45;33.30;70.30
52769;DHT22;40471;44.534;18.644;2023-06-26T13:45:11;33.10;70.00
52769;DHT22;40471;44.534;18.644;2023-06-26T13:47:37;32.90;68.70
52769;DHT22;40471;44.534;18.644;2023-06-26T13:50:07;32.70;69.90
52769;DHT22;40471;44.534;18.644;2023-06-26T13:52:33;32.60;69.90
52769;DHT22;40471;44.534;18.644;2023-06-26T13:54:58;32.70;70.20
52769;DHT22;40471;44.534;18.644;2023-06-26T13:57:24;32.70;70.10
52769;DHT22;40471;44.534;18.644;2023-06-26T13:59:49;32.90;71.50
52769;DHT22;40471;44.534;18.644;2023-06-26T14:02:15;33.00;71.50
52769;DHT22;40471;44.534;18.644;2023-06-26T14:04:41;33.00;71.20
52769;DHT22;40471;44.534;18.644;2023-06-26T14:07:06;33.00;71.20
52769;DHT22;40471;44.534;18.644;2023-06-26T14:09:32;33.00;70.00
52769;DHT22;40471;44.534;18.644;2023-06-26T14:11:58;32.90;71.70
52769;DHT22;40471;44.534;18.644;2023-06-26T14:14:24;33.10;69.50
52769;DHT22;40471;44.534;18.644;2023-06-26T14:16:50;33.00;70.60
52769;DHT22;40471;44.534;18.644;2023-06-26T14:19:16;33.00;70.70
52769;DHT22;40471;44.534;18.644;2023-06-26T14:21:43;32.90;68.90
52769;DHT22;40471;44.534;18.644;2023-06-26T14:24:09;32.80;69.00
52769;DHT22;40471;44.534;18.644;2023-06-26T14:26:35;32.80;69.40
52769;DHT22;40471;44.534;18.644;2023-06-26T14:29:02;32.80;70.60
52769;DHT22;40471;44.534;18.644;2023-06-26T14:31:27;32.80;71.40
52769;DHT22;40471;44.534;18.644;2023-06-26T14:33:53;32.90;68.50
52769;DHT22;40471;44.534;18.644;2023-06-26T14:36:19;32.80;68.90
52769;DHT22;40471;44.534;18.644;2023-06-26T14:38:45;32.70;68.40
52769;DHT22;40471;44.534;18.644;2023-06-26T14:41:11;32.70;68.80
52769;DHT22;40471;44.534;18.644;2023-06-26T14:43:37;32.70;69.70
52769;DHT22;40471;44.534;18.644;2023-06-26T14:46:02;32.80;70.10
52769;DHT22;40471;44.534;18.644;2023-06-26T14:48:28;32.70;69.30
52769;DHT22;40471;44.534;18.644;2023-06-26T14:50:53;32.70;69.50
52769;DHT22;40471;44.534;18.644;2023-06-26T14:53:19;32.70;69.40
52769;DHT22;40471;44.534;18.644;2023-06-26T14:55:45;32.80;69.10
52769;DHT22;40471;44.534;18.644;2023-06-26T14:58:10;32.80;68.70
52769;DHT22;40471;44.534;18.644;2023-06-26T15:00:36;32.80;69.10
52769;DHT22;40471;44.534;18.644;2023-06-26T15:03:02;32.70;69.20
52769;DHT22;40471;44.534;18.644;2023-06-26T15:05:27;32.50;69.30
52769;DHT22;40471;44.534;18.644;2023-06-26T15:07:53;32.40;70.20
52769;DHT22;40471;44.534;18.644;2023-06-26T15:10:19;32.20;70.20
52769;DHT22;40471;44.534;18.644;2023-06-26T15:12:45;32.00;71.20
52769;DHT22;40471;44.534;18.644;2023-06-26T15:15:10;32.10;70.80
52769;DHT22;40471;44.534;18.644;2023-06-26T15:17:36;32.10;69.10
52769;DHT22;40471;44.534;18.644;2023-06-26T15:20:02;31.90;69.70
52769;DHT22;40471;44.534;18.644;2023-06-26T15:22:27;31.60;70.50
52769;DHT22;40471;44.534;18.644;2023-06-26T15:24:53;31.40;71.50
52769;DHT22;40471;44.534;18.644;2023-06-26T15:27:20;31.30;71.10
52769;DHT22;40471;44.534;18.644;2023-06-26T15:29:46;31.20;71.40
52769;DHT22;40471;44.534;18.644;2023-06-26T15:32:12;31.20;71.70
52769;DHT22;40471;44.534;18.644;2023-06-26T15:34:39;31.20;73.20
52769;DHT22;40471;44.534;18.644;2023-06-26T15:37:04;31.10;74.50
52769;DHT22;40471;44.534;18.644;2023-06-26T15:39:30;31.10;73.70
52769;DHT22;40471;44.534;18.644;2023-06-26T15:41:56;31.10;74.40
52769;DHT22;40471;44.534;18.644;2023-06-26T15:44:21;31.00;73.70